createdAt,value
2018-09-03T00:02:27.259Z,71.95
2018-09-03T00:04:55.061Z,72.88
2018-09-03T00:07:22.867Z,72.69
2018-09-03T00:09:50.715Z,72.65
2018-09-03T00:12:18.528Z,71.37
2018-09-03T00:14:46.344Z,71.87
2018-09-03T00:17:14.147Z,71.96
2018-09-03T00:19:41.876Z,73.39
2018-09-03T00:22:09.724Z,72.92
2018-09-03T00:24:37.547Z,73.52
2018-09-03T00:27:05.307Z,72.63
2018-09-03T00:29:33.198Z,73.68
2018-09-03T00:32:06.831Z,72.18
2018-09-03T00:34:40.447Z,72.71
2018-09-03T00:37:14.019Z,73.01
2018-09-03T00:39:47.499Z,74.21
2018-09-03T00:42:21.023Z,73.93
2018-09-03T00:44:54.668Z,73.34
2018-09-03T00:47:22.512Z,72.72
2018-09-03T00:49:50.483Z,73.86
2018-09-03T00:52:18.330Z,70.62
2018-09-03T00:54:46.201Z,71.97
2018-09-03T00:57:13.927Z,73.29
2018-09-03T00:59:41.742Z,72.68
2018-09-03T01:02:09.637Z,74.26
2018-09-03T01:04:37.410Z,74.21
2018-09-03T01:07:05.340Z,73.53
2018-09-03T01:09:33.168Z,73.00
2018-09-03T01:12:01.023Z,74.52
2018-09-03T01:14:28.886Z,74.88
2018-09-03T01:16:56.670Z,72.91
2018-09-03T01:19:24.495Z,73.21
2018-09-03T01:21:52.340Z,72.95
2018-09-03T01:24:20.180Z,73.88
2018-09-03T01:26:47.988Z,72.96
2018-09-03T01:29:15.814Z,72.82
2018-09-03T01:31:43.603Z,72.33
2018-09-03T01:34:11.464Z,73.45
2018-09-03T01:36:39.349Z,73.28
2018-09-03T01:39:08.252Z,72.74
2018-09-03T01:41:36.047Z,73.51
2018-09-03T01:44:03.892Z,72.84
2018-09-03T01:46:31.741Z,73.34
2018-09-03T01:48:59.588Z,72.48
2018-09-03T01:51:27.348Z,73.49
2018-09-03T01:53:55.147Z,73.67
2018-09-03T01:56:23.000Z,73.46
2018-09-03T01:58:50.748Z,72.59
2018-09-03T02:01:18.523Z,72.75
2018-09-03T02:03:46.355Z,71.24
2018-09-03T02:06:14.147Z,71.08
2018-09-03T02:08:42.016Z,72.70
2018-09-03T02:11:09.847Z,72.86
2018-09-03T02:13:37.746Z,73.24
2018-09-03T02:16:05.470Z,73.79
2018-09-03T02:18:33.283Z,72.88
2018-09-03T02:21:01.123Z,72.32
2018-09-03T02:23:28.925Z,72.94
2018-09-03T02:25:56.787Z,73.95
2018-09-03T02:28:24.635Z,74.55
2018-09-03T02:30:52.442Z,73.01
2018-09-03T02:33:20.227Z,74.07
2018-09-03T02:35:48.054Z,74.71
2018-09-03T02:38:15.835Z,76.10
2018-09-03T02:40:43.664Z,75.96
2018-09-03T02:43:11.510Z,73.76
2018-09-03T02:45:39.321Z,75.68
2018-09-03T02:48:07.215Z,73.42
2018-09-03T02:50:35.179Z,76.61
2018-09-03T02:53:03.020Z,75.83
2018-09-03T02:55:30.787Z,76.91
2018-09-03T02:57:58.543Z,77.44
2018-09-03T03:00:27.084Z,76.70
2018-09-03T03:02:56.584Z,75.89
2018-09-03T03:05:24.851Z,77.38
2018-09-03T03:07:52.705Z,74.34
2018-09-03T03:10:20.547Z,75.30
2018-09-03T03:12:48.496Z,78.51
2018-09-03T03:15:16.355Z,75.35
2018-09-03T03:17:44.211Z,74.63
2018-09-03T03:20:12.063Z,77.10
2018-09-03T03:22:39.849Z,79.16
2018-09-03T03:25:07.703Z,76.91
2018-09-03T03:27:35.558Z,77.66
2018-09-03T03:30:03.444Z,79.48
2018-09-03T03:32:31.191Z,77.21
2018-09-03T03:34:58.998Z,78.86
2018-09-03T03:37:26.873Z,78.82
2018-09-03T03:39:54.584Z,78.42
2018-09-03T03:42:22.452Z,77.97
2018-09-03T03:44:50.267Z,76.29
2018-09-03T03:47:18.084Z,78.01
2018-09-03T03:49:45.947Z,79.64
2018-09-03T03:52:13.724Z,79.21
2018-09-03T03:54:41.543Z,77.66
2018-09-03T03:57:09.340Z,77.40
2018-09-03T03:59:37.110Z,78.00
2018-09-03T04:02:05.212Z,79.88
2018-09-03T04:04:33.051Z,79.06
2018-09-03T04:07:00.897Z,79.64
2018-09-03T04:09:28.752Z,80.68
2018-09-03T04:11:56.497Z,80.12
2018-09-03T04:14:24.325Z,80.02
2018-09-03T04:16:52.124Z,79.28
2018-09-03T04:19:19.972Z,77.53
2018-09-03T04:21:47.828Z,79.30
2018-09-03T04:24:15.576Z,79.53
2018-09-03T04:26:43.357Z,81.11
2018-09-03T04:29:11.298Z,78.20
2018-09-03T04:31:39.107Z,79.94
2018-09-03T04:34:06.885Z,79.87
2018-09-03T04:36:34.655Z,81.04
2018-09-03T04:39:03.690Z,76.65
2018-09-03T04:41:31.403Z,80.71
2018-09-03T04:43:59.275Z,79.08
2018-09-03T04:46:27.159Z,79.79
2018-09-03T04:48:54.987Z,80.75
2018-09-03T04:51:22.811Z,81.86
2018-09-03T04:53:50.597Z,81.46
2018-09-03T04:56:18.388Z,78.08
2018-09-03T04:58:46.229Z,80.74
2018-09-03T05:01:14.027Z,77.47
2018-09-03T05:03:41.924Z,79.93
2018-09-03T05:06:10.010Z,76.63
2018-09-03T05:08:37.787Z,77.39
2018-09-03T05:11:05.584Z,80.00
2018-09-03T05:13:33.418Z,78.44
2018-09-03T05:16:01.252Z,79.15
2018-09-03T05:18:29.105Z,81.12
2018-09-03T05:20:56.855Z,80.37
2018-09-03T05:23:24.664Z,81.40
2018-09-03T05:25:52.470Z,80.15
2018-09-03T05:28:20.200Z,80.92
2018-09-03T05:30:48.186Z,77.38
2018-09-03T05:33:15.982Z,80.07
2018-09-03T05:35:43.810Z,80.76
2018-09-03T05:38:11.684Z,78.20
2018-09-03T05:40:39.627Z,79.99
2018-09-03T05:43:07.509Z,80.11
2018-09-03T05:45:35.347Z,80.34
2018-09-03T05:48:04.383Z,80.08
2018-09-03T05:50:32.242Z,79.30
2018-09-03T05:53:00.067Z,78.60
2018-09-03T05:55:27.979Z,79.35
2018-09-03T05:57:55.799Z,79.00
2018-09-03T06:00:23.670Z,77.07
2018-09-03T06:02:51.531Z,79.31
2018-09-03T06:05:19.423Z,78.38
2018-09-03T06:07:47.409Z,78.54
2018-09-03T06:10:15.239Z,77.54
2018-09-03T06:12:43.374Z,78.12
2018-09-03T06:15:11.566Z,79.94
2018-09-03T06:17:39.851Z,79.66
2018-09-03T06:20:07.688Z,79.90
2018-09-03T06:22:35.667Z,78.44
2018-09-03T06:25:03.730Z,80.22
2018-09-03T06:27:31.582Z,78.36
2018-09-03T06:29:59.584Z,79.29
2018-09-03T06:32:27.463Z,78.22
2018-09-03T06:34:55.283Z,79.27
2018-09-03T06:37:23.064Z,79.37
2018-09-03T06:39:50.875Z,78.00
2018-09-03T06:42:18.727Z,78.97
2018-09-03T06:44:46.535Z,79.05
2018-09-03T06:47:14.517Z,79.08
2018-09-03T06:49:42.395Z,79.20
2018-09-03T06:52:10.232Z,78.63
2018-09-03T06:54:38.112Z,79.14
2018-09-03T06:57:06.548Z,78.89
2018-09-03T06:59:34.427Z,78.18
2018-09-03T07:02:02.291Z,77.97
2018-09-03T07:04:30.123Z,76.90
2018-09-03T07:06:58.128Z,78.26
2018-09-03T07:09:26.012Z,78.13
2018-09-03T07:11:53.793Z,77.82
2018-09-03T07:14:21.668Z,76.83
2018-09-03T07:16:49.505Z,77.40
2018-09-03T07:19:17.303Z,78.04
2018-09-03T07:21:45.137Z,79.08
2018-09-03T07:24:12.933Z,78.74
2018-09-03T07:26:40.790Z,77.99
2018-09-03T07:29:08.643Z,78.62
2018-09-03T07:31:36.521Z,77.15
2018-09-03T07:34:04.320Z,78.30
2018-09-03T07:36:32.199Z,77.77
2018-09-03T07:39:00.036Z,77.41
2018-09-03T07:41:27.888Z,77.56
2018-09-03T07:43:55.744Z,77.31
2018-09-03T07:46:23.602Z,77.39
2018-09-03T07:48:51.438Z,78.22
2018-09-03T07:51:19.263Z,77.09
2018-09-03T07:53:47.095Z,76.58
2018-09-03T07:56:14.995Z,76.65
2018-09-03T07:58:42.844Z,77.26
2018-09-03T08:01:10.694Z,75.98
2018-09-03T08:03:38.476Z,75.71
2018-09-03T08:06:06.361Z,76.20
2018-09-03T08:08:34.193Z,75.57
2018-09-03T08:11:01.999Z,74.68
2018-09-03T08:13:35.832Z,73.98
2018-09-03T08:16:04.243Z,76.39
2018-09-03T08:18:32.037Z,75.23
2018-09-03T08:20:59.844Z,74.05
2018-09-03T08:23:27.707Z,75.63
2018-09-03T08:25:55.512Z,73.97
2018-09-03T08:28:23.420Z,75.53
2018-09-03T08:30:51.216Z,75.81
2018-09-03T08:33:18.992Z,74.73
2018-09-03T08:35:46.864Z,73.98
2018-09-03T08:38:14.644Z,73.46
2018-09-03T08:40:42.527Z,73.66
2018-09-03T08:43:10.360Z,73.78
2018-09-03T08:45:38.224Z,71.43
2018-09-03T08:48:06.029Z,72.13
2018-09-03T08:50:33.872Z,72.50
2018-09-03T08:53:01.715Z,71.22
2018-09-03T08:55:29.524Z,72.81
2018-09-03T08:57:57.386Z,71.94
2018-09-03T09:00:25.192Z,72.73
2018-09-03T09:02:53.060Z,70.72
2018-09-03T09:05:20.885Z,68.69
2018-09-03T09:07:48.697Z,69.67
2018-09-03T09:10:16.512Z,70.02
2018-09-03T09:12:44.335Z,69.14
2018-09-03T09:15:12.204Z,69.26
2018-09-03T09:17:40.453Z,69.47
2018-09-03T09:20:08.537Z,68.46
2018-09-03T09:22:36.406Z,67.34
2018-09-03T09:25:04.470Z,68.78
2018-09-03T09:27:32.314Z,67.22
2018-09-03T09:30:00.131Z,67.56
2018-09-03T09:32:27.928Z,67.45
2018-09-03T09:34:55.723Z,64.20
2018-09-03T09:37:23.507Z,64.09
2018-09-03T09:39:51.312Z,65.26
2018-09-03T09:42:19.107Z,64.74
2018-09-03T09:44:46.968Z,65.28
2018-09-03T09:47:14.861Z,64.90
2018-09-03T09:49:43.496Z,65.85
2018-09-03T09:52:11.307Z,64.83
2018-09-03T09:54:39.291Z,61.81
2018-09-03T09:57:07.051Z,64.08
2018-09-03T09:59:34.831Z,63.21
2018-09-03T10:02:03.343Z,64.07
2018-09-03T10:04:31.193Z,63.80
2018-09-03T10:06:58.999Z,63.43
2018-09-03T10:09:26.803Z,61.96
2018-09-03T10:11:54.632Z,63.82
2018-09-03T10:14:22.457Z,62.74
2018-09-03T10:16:50.323Z,61.76
2018-09-03T10:19:18.103Z,62.35
2018-09-03T10:21:45.875Z,62.33
2018-09-03T10:24:13.711Z,63.37
2018-09-03T10:26:41.844Z,62.29
2018-09-03T10:29:09.632Z,62.14
2018-09-03T10:31:37.457Z,62.16
2018-09-03T10:34:05.561Z,60.25
2018-09-03T10:36:33.415Z,61.01
2018-09-03T10:39:01.243Z,60.05
2018-09-03T10:41:29.040Z,61.29
2018-09-03T10:43:56.852Z,61.14
2018-09-03T10:46:24.751Z,59.93
2018-09-03T10:48:52.570Z,58.95
2018-09-03T10:51:20.351Z,59.63
2018-09-03T10:53:48.128Z,59.60
2018-09-03T10:56:15.976Z,56.44
2018-09-03T10:58:43.737Z,58.08
2018-09-03T11:01:11.553Z,57.45
2018-09-03T11:03:39.323Z,57.48
2018-09-03T11:06:07.139Z,53.98
2018-09-03T11:08:35.104Z,52.37
2018-09-03T11:11:02.899Z,54.12
2018-09-03T11:13:30.850Z,54.08
2018-09-03T11:15:58.733Z,53.84
2018-09-03T11:18:27.928Z,53.64
2018-09-03T11:20:55.706Z,54.54
2018-09-03T11:23:23.557Z,52.82
2018-09-03T11:25:51.376Z,54.50
2018-09-03T11:28:19.168Z,53.96
2018-09-03T11:30:46.990Z,51.62
2018-09-03T11:33:14.842Z,53.79
2018-09-03T11:35:42.926Z,52.60
2018-09-03T11:38:10.695Z,50.87
2018-09-03T11:40:38.485Z,53.89
2018-09-03T11:43:06.388Z,52.40
2018-09-03T11:45:34.171Z,52.34
2018-09-03T11:48:02.080Z,53.99
2018-09-03T11:50:29.911Z,53.10
2018-09-03T11:52:57.710Z,52.87
2018-09-03T11:55:25.461Z,52.46
2018-09-03T11:57:53.277Z,52.59
2018-09-03T12:00:25.194Z,52.08
2018-09-03T12:02:52.987Z,52.98
2018-09-03T12:05:20.776Z,52.98
2018-09-03T12:07:48.687Z,52.52
2018-09-03T12:10:16.438Z,51.48
2018-09-03T12:12:44.224Z,51.77
2018-09-03T12:16:17.326Z,49.81
2018-09-03T12:18:45.665Z,51.76
2018-09-03T12:21:14.202Z,51.37
2018-09-03T12:23:42.691Z,50.25
2018-09-03T12:26:10.672Z,51.22
2018-09-03T12:28:38.497Z,50.57
2018-09-03T12:31:06.760Z,50.38
2018-09-03T12:33:34.515Z,51.11
2018-09-03T12:36:02.784Z,49.80
2018-09-03T12:38:30.739Z,51.22
2018-09-03T12:40:58.568Z,51.28
2018-09-03T12:43:26.561Z,51.07
2018-09-03T12:46:00.740Z,51.96
2018-09-03T12:48:29.715Z,51.94
2018-09-03T12:50:57.848Z,53.06
2018-09-03T12:53:25.602Z,51.84
2018-09-03T12:55:53.435Z,52.40
2018-09-03T12:58:21.269Z,51.57
2018-09-03T13:00:49.134Z,52.60
2018-09-03T13:03:16.954Z,52.13
2018-09-03T13:05:44.748Z,51.89
2018-09-03T13:08:12.528Z,52.37
2018-09-03T13:10:40.343Z,52.04
2018-09-03T13:13:08.191Z,52.37
2018-09-03T13:15:35.955Z,52.39
2018-09-03T13:18:10.408Z,52.46
2018-09-03T13:20:38.181Z,51.51
2018-09-03T13:23:06.003Z,51.58
2018-09-03T13:25:33.795Z,51.42
2018-09-03T13:28:01.613Z,51.77
2018-09-03T13:30:29.452Z,51.21
2018-09-03T13:32:57.271Z,52.11
2018-09-03T13:35:25.414Z,51.84
2018-09-03T13:37:53.251Z,51.91
2018-09-03T13:40:21.071Z,51.47
2018-09-03T13:42:48.831Z,51.51
2018-09-03T13:45:16.594Z,51.55
2018-09-03T13:47:44.445Z,52.03
2018-09-03T13:50:12.167Z,52.05
2018-09-03T13:52:39.991Z,51.96
2018-09-03T13:55:07.867Z,51.75
2018-09-03T13:57:35.604Z,51.69
2018-09-03T14:00:03.720Z,51.98
2018-09-03T14:02:31.590Z,52.16
2018-09-03T14:04:59.462Z,52.34
2018-09-03T14:07:27.307Z,52.21
2018-09-03T14:09:55.153Z,51.17
2018-09-03T14:12:23.014Z,51.07
2018-09-03T14:14:50.755Z,51.70
2018-09-03T14:17:18.623Z,51.51
2018-09-03T14:19:46.448Z,50.63
2018-09-03T14:22:14.372Z,51.01
2018-09-03T14:24:42.072Z,51.04
2018-09-03T14:27:09.887Z,50.60
2018-09-03T14:29:37.758Z,50.69
2018-09-03T14:32:05.645Z,51.33
2018-09-03T14:34:33.385Z,50.69
2018-09-03T14:37:01.219Z,50.48
2018-09-03T14:39:28.915Z,50.98
2018-09-03T14:41:56.775Z,50.09
2018-09-03T14:44:24.588Z,51.15
2018-09-03T14:46:52.359Z,51.23
2018-09-03T14:49:20.201Z,51.62
2018-09-03T14:51:48.007Z,51.20
2018-09-03T14:54:15.785Z,51.07
2018-09-03T14:56:43.689Z,51.35
2018-09-03T14:59:11.529Z,51.22
2018-09-03T15:01:39.320Z,51.41
2018-09-03T15:04:07.216Z,52.10
2018-09-03T15:06:35.008Z,51.44
2018-09-03T15:09:04.471Z,51.00
2018-09-03T15:11:32.195Z,51.73
2018-09-03T15:14:00.496Z,51.61
2018-09-03T15:16:30.625Z,52.45
2018-09-03T15:18:59.283Z,51.68
2018-09-03T15:21:27.127Z,51.91
2018-09-03T15:23:54.959Z,51.56
2018-09-03T15:26:22.777Z,51.23
2018-09-03T15:28:50.581Z,51.92
2018-09-03T15:31:18.474Z,51.88
2018-09-03T15:33:46.358Z,51.29
2018-09-03T15:36:14.203Z,51.68
2018-09-03T15:38:42.064Z,51.99
2018-09-03T15:41:09.920Z,52.02
2018-09-03T15:43:37.755Z,52.29
2018-09-03T15:46:06.715Z,52.01
2018-09-03T15:48:34.625Z,51.99
2018-09-03T15:51:02.776Z,52.31
2018-09-03T15:53:30.632Z,51.90
2018-09-03T15:55:59.921Z,52.97
2018-09-03T15:58:27.719Z,52.67
2018-09-03T16:00:55.619Z,53.07
2018-09-03T16:03:23.463Z,52.90
2018-09-03T16:05:51.258Z,53.43
2018-09-03T16:08:19.125Z,53.13
2018-09-03T16:10:46.887Z,53.90
2018-09-03T16:13:14.668Z,53.98
2018-09-03T16:15:42.496Z,53.96
2018-09-03T16:18:10.298Z,54.07
2018-09-03T16:20:38.135Z,54.12
2018-09-03T16:23:06.443Z,54.40
2018-09-03T16:25:43.127Z,55.29
2018-09-03T16:28:11.272Z,55.33
2018-09-03T16:30:39.048Z,54.81
2018-09-03T16:33:06.860Z,55.38
2018-09-03T16:35:34.691Z,55.22
2018-09-03T16:38:02.525Z,55.58
2018-09-03T16:40:30.293Z,55.96
2018-09-03T16:42:58.085Z,56.63
2018-09-03T16:45:25.915Z,55.76
2018-09-03T16:47:53.727Z,56.32
2018-09-03T16:50:21.607Z,57.36
2018-09-03T16:52:50.227Z,57.79
2018-09-03T16:55:18.885Z,57.40
2018-09-03T16:57:46.678Z,57.66
2018-09-03T17:00:15.193Z,57.62
2018-09-03T17:02:43.428Z,58.08
2018-09-03T17:05:12.461Z,58.11
2018-09-03T17:07:41.313Z,57.77
2018-09-03T17:10:09.295Z,58.73
2018-09-03T17:12:38.294Z,58.81
2018-09-03T17:15:06.290Z,59.48
2018-09-03T17:17:34.127Z,59.20
2018-09-03T17:20:02.584Z,59.45
2018-09-03T17:22:30.527Z,60.06
2018-09-03T17:24:59.267Z,59.82
2018-09-03T17:27:27.544Z,60.63
2018-09-03T17:29:56.616Z,61.18
2018-09-03T17:32:24.647Z,61.72
2018-09-03T17:34:52.911Z,60.19
2018-09-03T17:37:21.307Z,62.02
2018-09-03T17:39:50.279Z,62.01
2018-09-03T17:42:18.735Z,61.34
2018-09-03T17:44:47.124Z,61.43
2018-09-03T17:47:15.762Z,61.67
2018-09-03T17:49:44.710Z,62.47
2018-09-03T17:52:12.624Z,62.32
2018-09-03T17:54:40.383Z,61.43
2018-09-03T17:57:08.182Z,62.07
2018-09-03T17:59:35.954Z,62.46
2018-09-03T18:02:03.791Z,62.26
2018-09-03T18:04:31.583Z,61.73
2018-09-03T18:06:59.331Z,63.03
2018-09-03T18:09:27.139Z,63.87
2018-09-03T18:11:55.000Z,63.57
2018-09-03T18:14:22.874Z,64.06
2018-09-03T18:16:50.639Z,63.27
2018-09-03T18:19:18.632Z,63.75
2018-09-03T18:21:46.452Z,64.56
2018-09-03T18:24:14.224Z,63.33
2018-09-03T18:26:42.139Z,64.07
2018-09-03T18:29:09.976Z,65.26
2018-09-03T18:31:37.836Z,62.87
2018-09-03T18:34:07.554Z,64.06
2018-09-03T18:36:35.392Z,65.42
2018-09-03T18:39:04.284Z,64.33
2018-09-03T18:41:32.046Z,65.73
2018-09-03T18:43:59.846Z,65.21
2018-09-03T18:46:27.649Z,65.96
2018-09-03T18:48:55.445Z,66.23
2018-09-03T18:51:23.209Z,65.32
2018-09-03T18:53:51.002Z,68.49
2018-09-03T18:56:18.988Z,71.29
2018-09-03T18:58:46.838Z,71.48
2018-09-03T19:01:14.912Z,71.72
2018-09-03T19:03:42.691Z,70.21
2018-09-03T19:06:11.284Z,75.81
2018-09-03T19:08:40.383Z,74.53
2018-09-03T19:11:08.212Z,73.33
2018-09-03T19:13:36.248Z,73.85
2018-09-03T19:16:04.461Z,75.26
2018-09-03T19:18:32.963Z,75.43
2018-09-03T19:21:01.012Z,76.70
2018-09-03T19:23:36.612Z,72.95
2018-09-03T19:26:04.557Z,75.40
2018-09-03T19:28:32.454Z,74.59
2018-09-03T19:31:09.489Z,72.42
2018-09-03T19:33:37.559Z,72.24
2018-09-03T19:36:05.251Z,72.50
2018-09-03T19:38:33.959Z,72.74
2018-09-03T19:41:04.727Z,71.97
2018-09-03T19:43:36.590Z,73.50
2018-09-03T19:46:07.624Z,73.62
2018-09-03T19:48:36.170Z,72.84
2018-09-03T19:51:04.625Z,72.20
2018-09-03T19:53:32.425Z,76.84
2018-09-03T19:56:00.264Z,73.30
2018-09-03T19:58:28.204Z,75.74
2018-09-03T20:00:56.016Z,74.22
2018-09-03T20:03:23.855Z,73.76
2018-09-03T20:05:51.840Z,75.63
2018-09-03T20:08:21.366Z,75.81
2018-09-03T20:10:49.112Z,76.54
2018-09-03T20:13:17.110Z,77.09
2018-09-03T20:15:44.915Z,76.62
2018-09-03T20:18:12.747Z,76.62
2018-09-03T20:20:40.641Z,77.52
2018-09-03T20:23:08.443Z,77.56
2018-09-03T20:25:36.256Z,79.51
2018-09-03T20:28:04.163Z,77.77
2018-09-03T20:30:32.525Z,79.45
2018-09-03T20:33:06.263Z,76.89
2018-09-03T20:35:35.508Z,77.63
2018-09-03T20:38:04.211Z,77.63
2018-09-03T20:40:32.062Z,80.54
2018-09-03T20:43:06.795Z,79.19
2018-09-03T20:45:34.771Z,81.35
2018-09-03T20:48:02.695Z,81.66
2018-09-03T20:50:30.509Z,79.42
2018-09-03T20:52:58.328Z,81.48
2018-09-03T20:55:26.213Z,79.83
2018-09-03T20:57:54.025Z,80.01
2018-09-03T21:00:21.784Z,78.17
2018-09-03T21:02:49.621Z,79.04
2018-09-03T21:05:17.561Z,80.52
2018-09-03T21:07:45.362Z,79.70
2018-09-03T21:10:13.613Z,79.17
2018-09-03T21:12:42.811Z,81.72
2018-09-03T21:15:10.579Z,82.42
2018-09-03T21:17:38.412Z,81.44
2018-09-03T21:20:06.425Z,82.24
2018-09-03T21:22:34.324Z,80.93
2018-09-03T21:25:02.125Z,82.05
2018-09-03T21:27:29.926Z,83.03
2018-09-03T21:30:00.048Z,79.76
2018-09-03T21:32:27.967Z,79.33
2018-09-03T21:34:55.923Z,78.42
2018-09-03T21:37:23.859Z,77.92
2018-09-03T21:39:51.650Z,80.80
2018-09-03T21:42:19.491Z,77.37
2018-09-03T21:44:47.324Z,77.21
2018-09-03T21:47:15.221Z,79.03
2018-09-03T21:49:43.060Z,79.91
2018-09-03T21:52:10.858Z,77.27
2018-09-03T21:54:38.715Z,77.65
2018-09-03T21:57:06.678Z,79.66
2018-09-03T21:59:34.423Z,76.87
2018-09-03T22:02:02.579Z,81.49
2018-09-03T22:04:30.384Z,82.95
2018-09-03T22:06:58.219Z,79.12
2018-09-03T22:09:26.088Z,80.60
2018-09-03T22:11:53.943Z,82.51
2018-09-03T22:14:21.845Z,83.19
2018-09-03T22:16:50.664Z,83.12
2018-09-03T22:19:18.474Z,82.84
2018-09-03T22:21:46.277Z,81.58
2018-09-03T22:24:14.205Z,80.74
2018-09-03T22:26:42.256Z,81.13
2018-09-03T22:29:10.036Z,82.19
2018-09-03T22:31:37.835Z,79.04
2018-09-03T22:34:05.644Z,81.57
2018-09-03T22:36:33.575Z,80.55
2018-09-03T22:39:01.364Z,79.08
2018-09-03T22:41:29.147Z,82.34
2018-09-03T22:43:57.020Z,82.69
2018-09-03T22:46:24.864Z,81.23
2018-09-03T22:48:52.705Z,83.14
2018-09-03T22:51:20.503Z,81.07
2018-09-03T22:53:48.226Z,82.87
2018-09-03T22:56:15.999Z,80.28
2018-09-03T22:58:43.786Z,83.87
2018-09-03T23:01:11.559Z,80.62
2018-09-03T23:03:39.708Z,81.84
2018-09-03T23:06:07.590Z,84.09
2018-09-03T23:08:35.547Z,82.32
2018-09-03T23:11:03.384Z,79.17
2018-09-03T23:13:31.182Z,79.88
2018-09-03T23:15:58.980Z,78.52
2018-09-03T23:18:26.866Z,83.40
2018-09-03T23:20:54.741Z,82.88
2018-09-03T23:23:22.560Z,81.40
2018-09-03T23:25:50.440Z,82.69
2018-09-03T23:28:18.236Z,83.83
2018-09-03T23:30:46.032Z,81.67
2018-09-03T23:33:13.903Z,81.69
2018-09-03T23:35:41.787Z,83.32
2018-09-03T23:38:09.638Z,80.26
2018-09-03T23:40:37.429Z,81.73
2018-09-03T23:43:05.315Z,82.66
2018-09-03T23:45:33.151Z,84.08
2018-09-03T23:48:01.003Z,84.18
2018-09-03T23:50:28.896Z,82.79
2018-09-03T23:52:57.075Z,84.87
2018-09-03T23:55:24.940Z,85.44
2018-09-03T23:57:52.828Z,82.64
